Time;durP1;ratioP1;P1;durP2;ratioP2;P2;SDS_P1;SDS_P2;PMS_P1;PMS_P2;Temp;Humidity;BMP_temperature;BMP_pressure;BME280_temperature;BME280_humidity;BME280_pressure;Samples;Min_cycle;Max_cycle;Signal;HPM_P1;HPM_P2
2021/11/12 00:12:47;;;;;;;41.03;28.40;;;;;;;;;;4991081;28;20514;-73
2021/11/12 00:15:12;;;;;;;42.87;29.23;;;;;;;;;;4995685;28;20482;-73
2021/11/12 00:17:38;;;;;;;42.57;29.13;;;;;;;;;;4991907;28;20460;-73
2021/11/12 00:20:04;;;;;;;41.00;26.77;;;;;;;;;;4991682;28;20545;-73
2021/11/12 00:22:29;;;;;;;40.20;27.30;;;;;;;;;;4994266;28;20617;-73
2021/11/12 00:24:56;;;;;;;36.53;27.40;;;;;;;;;;4991926;28;20181;-73
2021/11/12 00:27:21;;;;;;;44.47;28.70;;;;;;;;;;4989154;28;20218;-73
2021/11/12 00:32:23;;;;;;;41.40;27.73;;;;;;;;;;4991677;28;20197;-73
2021/11/12 00:35:07;;;;;;;39.97;28.57;;;;;;;;;;4992408;28;20463;-73
2021/11/12 00:37:54;;;;;;;41.30;27.57;;;;;;;;;;4988934;28;20472;-73
2021/11/12 00:40:27;;;;;;;47.70;30.63;;;;;;;;;;4996372;28;20488;-73
2021/11/12 00:45:28;;;;;;;43.20;29.03;;;;;;;;;;4986780;28;20447;-73
2021/11/12 00:47:57;;;;;;;48.73;30.93;;;;;;;;;;4993649;28;20471;-73
2021/11/12 00:55:16;;;;;;;40.50;27.57;;;;;;;;;;4991294;28;20437;-73
2021/11/12 00:57:42;;;;;;;45.47;29.37;;;;;;;;;;4992412;28;20205;-73
2021/11/12 01:00:08;;;;;;;43.97;28.50;;;;;;;;;;4989855;28;20502;-73
2021/11/12 01:02:34;;;;;;;45.40;28.33;;;;;;;;;;4992811;28;20937;-73
2021/11/12 01:04:59;;;;;;;39.53;26.90;;;;;;;;;;4994177;28;20437;-73
2021/11/12 01:07:25;;;;;;;48.10;30.70;;;;;;;;;;4984100;28;20488;-73
2021/11/12 01:09:50;;;;;;;42.97;28.50;;;;;;;;;;4990860;28;20684;-73
2021/11/12 01:12:16;;;;;;;36.30;27.60;;;;;;;;;;4991499;28;20185;-73
2021/11/12 01:14:41;;;;;;;40.43;28.93;;;;;;;;;;4995547;28;22215;-73
2021/11/12 01:17:06;;;;;;;43.10;30.53;;;;;;;;;;4989483;28;20205;-73
2021/11/12 01:19:31;;;;;;;48.80;29.07;;;;;;;;;;4992501;28;20296;-73
2021/11/12 01:21:57;;;;;;;44.20;30.70;;;;;;;;;;4991905;28;20193;-75
2021/11/12 01:24:22;;;;;;;44.83;31.03;;;;;;;;;;4993045;28;20232;-73
2021/11/12 01:26:48;;;;;;;43.90;30.00;;;;;;;;;;4988838;28;20178;-73
2021/11/12 01:29:13;;;;;;;44.83;31.30;;;;;;;;;;4988068;28;20213;-73
2021/11/12 01:31:39;;;;;;;46.47;31.97;;;;;;;;;;4993717;28;20181;-74
2021/11/12 01:34:09;;;;;;;47.80;29.90;;;;;;;;;;4987061;28;20181;-73
2021/11/12 01:36:38;;;;;;;43.47;31.93;;;;;;;;;;4993772;28;20459;-73
2021/11/12 01:39:07;;;;;;;45.37;31.23;;;;;;;;;;4993016;28;20499;-73
2021/11/12 01:41:33;;;;;;;47.83;30.47;;;;;;;;;;4989570;28;20441;-73
2021/11/12 01:44:01;;;;;;;55.67;31.40;;;;;;;;;;4992108;28;20440;-74
2021/11/12 01:56:47;;;;;;;45.70;33.53;;;;;;;;;;4990806;28;20440;-74
2021/11/12 01:59:15;;;;;;;50.27;33.67;;;;;;;;;;4992299;28;20444;-73
2021/11/12 02:01:46;;;;;;;44.43;32.23;;;;;;;;;;4990176;28;20463;-73
2021/11/12 02:04:14;;;;;;;45.87;31.10;;;;;;;;;;4990925;28;20992;-73
2021/11/12 02:06:40;;;;;;;47.10;32.03;;;;;;;;;;4996212;28;20524;-73
2021/11/12 02:09:17;;;;;;;47.33;31.00;;;;;;;;;;4995163;28;20527;-73
2021/11/12 02:11:44;;;;;;;42.73;29.97;;;;;;;;;;4987647;28;20428;-73
2021/11/12 02:14:10;;;;;;;44.40;31.33;;;;;;;;;;4987823;28;20440;-73
2021/11/12 02:16:39;;;;;;;42.90;30.23;;;;;;;;;;4987417;28;20436;-73
2021/11/12 02:19:05;;;;;;;44.13;30.43;;;;;;;;;;4988962;28;21060;-73
2021/11/12 02:21:35;;;;;;;43.10;29.70;;;;;;;;;;4986798;28;20440;-74
2021/11/12 02:24:11;;;;;;;45.70;31.00;;;;;;;;;;4995142;28;20434;-73
2021/11/12 02:26:43;;;;;;;45.13;30.00;;;;;;;;;;4988881;28;20432;-73
2021/11/12 02:29:10;;;;;;;42.10;30.57;;;;;;;;;;4985423;28;21036;-73
2021/11/12 02:31:36;;;;;;;40.80;29.83;;;;;;;;;;4992697;28;20943;-73
2021/11/12 02:34:05;;;;;;;39.93;27.30;;;;;;;;;;4994891;28;20962;-73
2021/11/12 02:36:31;;;;;;;43.77;30.07;;;;;;;;;;4992910;28;20876;-73
2021/11/12 02:38:57;;;;;;;41.95;28.67;;;;;;;;;;4953831;28;1081442;-73
2021/11/12 02:41:24;;;;;;;43.03;29.47;;;;;;;;;;4994800;28;20177;-73
2021/11/12 02:43:49;;;;;;;47.77;30.93;;;;;;;;;;4990687;28;20230;-73
2021/11/12 02:46:16;;;;;;;45.10;30.63;;;;;;;;;;4989417;28;20433;-73
2021/11/12 02:48:42;;;;;;;42.80;29.53;;;;;;;;;;4989662;28;20244;-73
2021/11/12 02:51:10;;;;;;;40.77;29.37;;;;;;;;;;4993100;28;20887;-73
2021/11/12 02:53:37;;;;;;;39.03;28.40;;;;;;;;;;4995369;28;20563;-73
2021/11/12 02:56:06;;;;;;;46.70;31.10;;;;;;;;;;4991680;28;20635;-73
2021/11/12 02:58:32;;;;;;;41.07;30.37;;;;;;;;;;4991097;28;20460;-73
2021/11/12 03:00:57;;;;;;;36.53;28.50;;;;;;;;;;4994638;28;20438;-73
2021/11/12 03:03:23;;;;;;;39.30;29.20;;;;;;;;;;4990993;28;20855;-73
2021/11/12 03:05:48;;;;;;;40.30;28.30;;;;;;;;;;4991798;28;20238;-73
2021/11/12 03:08:13;;;;;;;43.77;31.20;;;;;;;;;;4993086;28;20280;-74
2021/11/12 03:10:38;;;;;;;41.97;28.30;;;;;;;;;;5000819;28;20288;-74
2021/11/12 03:13:04;;;;;;;36.87;28.70;;;;;;;;;;4999833;28;20173;-74
2021/11/12 03:15:29;;;;;;;42.23;28.50;;;;;;;;;;4995859;28;20736;-74
2021/11/12 03:17:55;;;;;;;38.47;28.50;;;;;;;;;;4995743;28;20675;-73
2021/11/12 03:20:22;;;;;;;37.30;28.00;;;;;;;;;;4994758;28;20186;-73
2021/11/12 03:22:53;;;;;;;36.73;28.50;;;;;;;;;;4995869;28;20428;-73
2021/11/12 03:25:29;;;;;;;38.47;28.03;;;;;;;;;;4995322;28;20995;-73
2021/11/12 03:28:19;;;;;;;42.23;29.50;;;;;;;;;;4994954;28;20443;-73
2021/11/12 04:00:39;;;;;;;42.10;27.87;;;;;;;;;;4991654;28;20932;-73
2021/11/12 04:06:24;;;;;;;35.07;28.07;;;;;;;;;;4992488;28;20441;-73
2021/11/12 04:17:27;;;;;;;44.83;28.80;;;;;;;;;;4993717;28;20929;-73
2021/11/12 05:25:46;;;;;;;33.03;26.47;;;;;;;;;;4995883;28;20454;-73
2021/11/12 05:43:38;;;;;;;37.97;26.83;;;;;;;;;;4995190;28;20423;-73
2021/11/12 05:46:15;;;;;;;38.80;25.97;;;;;;;;;;4991816;28;20420;-75
2021/11/12 05:56:34;;;;;;;34.77;25.70;;;;;;;;;;4991457;28;20180;-73
2021/11/12 05:58:59;;;;;;;39.57;27.93;;;;;;;;;;4991306;28;20448;-73
2021/11/12 06:01:24;;;;;;;37.33;25.20;;;;;;;;;;4988359;28;20779;-73
2021/11/12 06:03:50;;;;;;;35.40;26.43;;;;;;;;;;4984364;28;20181;-74
2021/11/12 06:06:15;;;;;;;35.83;25.97;;;;;;;;;;4989528;28;20177;-73
2021/11/12 06:08:41;;;;;;;34.53;26.00;;;;;;;;;;5004545;28;20596;-74
2021/11/12 06:11:06;;;;;;;36.60;27.70;;;;;;;;;;4994891;28;20604;-74
2021/11/12 06:13:32;;;;;;;36.70;26.23;;;;;;;;;;4994548;28;20552;-74
2021/11/12 06:15:57;;;;;;;39.93;27.70;;;;;;;;;;4992276;28;20211;-73
2021/11/12 06:18:23;;;;;;;41.90;27.10;;;;;;;;;;4992443;28;20210;-73
2021/11/12 06:20:48;;;;;;;36.37;25.90;;;;;;;;;;4988672;28;20882;-73
2021/11/12 06:23:14;;;;;;;34.00;25.03;;;;;;;;;;4994135;28;20230;-73
2021/11/12 06:25:39;;;;;;;38.07;27.07;;;;;;;;;;4989415;28;20196;-73
2021/11/12 06:28:04;;;;;;;35.27;26.57;;;;;;;;;;4993696;28;20201;-73
2021/11/12 06:30:30;;;;;;;46.20;28.50;;;;;;;;;;4994103;28;20205;-73
2021/11/12 06:32:55;;;;;;;38.93;28.20;;;;;;;;;;4991565;28;20177;-73
2021/11/12 06:35:20;;;;;;;38.33;26.90;;;;;;;;;;4990018;28;20673;-72
2021/11/12 06:37:46;;;;;;;40.77;27.87;;;;;;;;;;4990957;28;20641;-75
2021/11/12 06:40:17;;;;;;;39.03;27.20;;;;;;;;;;4995008;28;20185;-73
2021/11/12 06:42:51;;;;;;;37.23;26.30;;;;;;;;;;4992938;28;20197;-73
2021/11/12 06:50:32;;;;;;;40.20;26.50;;;;;;;;;;4993200;28;20455;-72
2021/11/12 06:52:57;;;;;;;37.17;27.47;;;;;;;;;;4993109;28;20429;-73
2021/11/12 06:55:22;;;;;;;36.37;27.33;;;;;;;;;;4996173;28;20730;-73
2021/11/12 06:57:48;;;;;;;37.37;27.30;;;;;;;;;;4996651;28;20205;-73
2021/11/12 07:00:15;;;;;;;38.87;27.53;;;;;;;;;;4996433;28;20228;-72
2021/11/12 07:02:41;;;;;;;38.83;26.90;;;;;;;;;;4991541;28;20231;-71
2021/11/12 07:05:07;;;;;;;39.20;27.47;;;;;;;;;;4988664;28;20460;-71
2021/11/12 07:07:33;;;;;;;36.70;26.77;;;;;;;;;;4987229;28;20516;-72
2021/11/12 07:09:58;;;;;;;38.50;27.83;;;;;;;;;;4992355;28;20205;-73
2021/11/12 07:12:23;;;;;;;45.97;28.33;;;;;;;;;;4994719;28;20490;-73
2021/11/12 07:14:49;;;;;;;39.50;29.97;;;;;;;;;;4987097;28;20238;-73
2021/11/12 07:17:14;;;;;;;42.60;30.37;;;;;;;;;;4985293;28;20296;-73
2021/11/12 07:19:39;;;;;;;39.53;28.97;;;;;;;;;;4988151;28;20593;-73
2021/11/12 07:22:05;;;;;;;37.87;28.10;;;;;;;;;;4990844;28;20454;-72
2021/11/12 07:24:31;;;;;;;38.17;28.87;;;;;;;;;;4997001;28;20181;-72
2021/11/12 07:26:57;;;;;;;40.60;28.83;;;;;;;;;;4994495;28;20177;-71
2021/11/12 07:29:24;;;;;;;44.83;30.07;;;;;;;;;;4995294;28;20200;-72
2021/11/12 07:31:50;;;;;;;42.43;28.37;;;;;;;;;;4995365;28;20423;-72
2021/11/12 07:34:16;;;;;;;40.63;28.10;;;;;;;;;;4997858;28;20588;-72
2021/11/12 07:36:46;;;;;;;44.53;29.17;;;;;;;;;;4990462;28;20486;-73
2021/11/12 07:42:09;;;;;;;44.20;30.10;;;;;;;;;;4994157;28;20847;-72
2021/11/12 07:49:25;;;;;;;37.67;28.80;;;;;;;;;;4988024;28;20466;-72
2021/11/12 07:51:51;;;;;;;43.97;28.67;;;;;;;;;;4991508;28;20429;-73
2021/11/12 07:54:16;;;;;;;47.37;31.47;;;;;;;;;;4989558;28;20182;-72
2021/11/12 07:56:41;;;;;;;41.93;29.03;;;;;;;;;;4989186;28;20211;-73
2021/11/12 07:59:07;;;;;;;39.17;28.87;;;;;;;;;;4989989;28;20335;-73
2021/11/12 08:01:32;;;;;;;39.13;28.90;;;;;;;;;;4992360;28;20228;-73
2021/11/12 08:04:00;;;;;;;44.17;28.70;;;;;;;;;;4988533;28;20182;-73
2021/11/12 08:06:27;;;;;;;40.80;28.40;;;;;;;;;;4985050;28;20210;-73
2021/11/12 08:09:02;;;;;;;37.03;27.83;;;;;;;;;;4990454;28;20530;-72
2021/11/12 08:11:43;;;;;;;43.40;27.67;;;;;;;;;;4986430;28;20443;-72
2021/11/12 08:14:14;;;;;;;34.70;26.73;;;;;;;;;;4984972;28;20433;-72
2021/11/12 08:19:40;;;;;;;33.40;27.17;;;;;;;;;;4989663;28;20998;-70
2021/11/12 08:27:43;;;;;;;39.27;28.10;;;;;;;;;;4989102;28;20223;-70
2021/11/12 08:30:43;;;;;;;39.07;27.80;;;;;;;;;;4990454;28;20460;-71
2021/11/12 08:32:59;;;;;;;39.53;27.00;;;;;;;;;;4990522;28;20428;-70
2021/11/12 08:40:56;;;;;;;43.03;27.83;;;;;;;;;;4990431;28;20467;-71
2021/11/12 08:43:34;;;;;;;37.30;26.97;;;;;;;;;;4990351;28;20208;-70
2021/11/12 08:46:07;;;;;;;42.43;28.07;;;;;;;;;;4991809;28;20424;-71
2021/11/12 08:48:55;;;;;;;38.07;27.03;;;;;;;;;;4990904;28;20521;-71
2021/11/12 08:51:21;;;;;;;37.77;25.83;;;;;;;;;;4984829;28;20477;-71
2021/11/12 08:53:48;;;;;;;41.97;28.30;;;;;;;;;;4992057;28;20550;-72
2021/11/12 08:56:14;;;;;;;41.43;27.33;;;;;;;;;;4993006;28;20431;-71
2021/11/12 08:58:46;;;;;;;45.40;30.77;;;;;;;;;;4991570;28;21075;-71
2021/11/12 09:01:12;;;;;;;37.67;27.50;;;;;;;;;;4990379;28;20439;-72
2021/11/12 09:03:37;;;;;;;35.83;28.23;;;;;;;;;;4991349;28;20526;-71
2021/11/12 09:06:04;;;;;;;44.03;28.47;;;;;;;;;;4992763;28;20579;-72
2021/11/12 09:08:30;;;;;;;44.53;30.30;;;;;;;;;;4991608;28;20223;-71
2021/11/12 09:10:56;;;;;;;37.80;28.37;;;;;;;;;;4993247;28;20510;-71
2021/11/12 09:13:26;;;;;;;43.80;30.03;;;;;;;;;;4994645;28;20433;-71
2021/11/12 09:15:54;;;;;;;38.60;28.90;;;;;;;;;;4989824;28;20181;-71
2021/11/12 09:18:22;;;;;;;38.13;28.70;;;;;;;;;;4996576;28;20451;-71
2021/11/12 09:20:48;;;;;;;47.70;32.13;;;;;;;;;;4996230;28;20867;-71
2021/11/12 09:23:13;;;;;;;46.10;33.27;;;;;;;;;;4994477;28;20466;-70
2021/11/12 09:25:39;;;;;;;40.17;30.27;;;;;;;;;;4989707;28;20910;-70
2021/11/12 09:28:04;;;;;;;44.30;31.57;;;;;;;;;;4995919;28;20197;-71
2021/11/12 09:30:35;;;;;;;44.97;30.73;;;;;;;;;;4993685;28;20537;-70
2021/11/12 09:33:04;;;;;;;46.53;31.73;;;;;;;;;;4996282;28;20779;-71
2021/11/12 09:35:30;;;;;;;46.60;31.70;;;;;;;;;;4995936;28;21136;-71
2021/11/12 09:37:55;;;;;;;42.27;31.67;;;;;;;;;;4987236;28;20542;-70
2021/11/12 09:40:21;;;;;;;38.37;30.53;;;;;;;;;;4994991;28;20197;-69
2021/11/12 09:42:47;;;;;;;44.13;31.73;;;;;;;;;;4999319;28;20184;-70
2021/11/12 09:45:13;;;;;;;46.00;31.10;;;;;;;;;;4991006;28;20316;-71
2021/11/12 09:47:39;;;;;;;47.73;33.73;;;;;;;;;;4995785;28;20532;-71
2021/11/12 09:50:06;;;;;;;40.10;30.30;;;;;;;;;;4986982;28;20193;-71
2021/11/12 09:52:32;;;;;;;47.40;30.57;;;;;;;;;;4991411;28;20181;-70
2021/11/12 09:54:58;;;;;;;42.77;29.43;;;;;;;;;;4983508;28;20612;-71
2021/11/12 09:57:24;;;;;;;45.67;31.07;;;;;;;;;;4987124;28;20284;-72
2021/11/12 09:59:50;;;;;;;35.90;27.53;;;;;;;;;;4987695;28;20536;-70
2021/11/12 10:02:16;;;;;;;40.40;30.23;;;;;;;;;;4979369;28;20184;-71
2021/11/12 10:04:42;;;;;;;38.13;29.30;;;;;;;;;;4982754;28;20487;-71
2021/11/12 10:07:09;;;;;;;36.70;28.37;;;;;;;;;;4977879;28;21285;-71
2021/11/12 10:09:35;;;;;;;37.53;27.60;;;;;;;;;;4982985;28;20460;-70
2021/11/12 10:12:00;;;;;;;41.30;27.13;;;;;;;;;;4989146;28;20490;-70
2021/11/12 10:14:35;;;;;;;44.37;28.93;;;;;;;;;;4981750;28;20185;-71
2021/11/12 10:17:00;;;;;;;36.77;24.93;;;;;;;;;;4985764;28;20165;-71
2021/11/12 10:19:25;;;;;;;36.80;26.37;;;;;;;;;;4993019;28;20815;-71
2021/11/12 10:21:51;;;;;;;31.67;24.43;;;;;;;;;;4990102;28;20186;-71
2021/11/12 10:24:16;;;;;;;32.50;22.83;;;;;;;;;;4987388;28;20181;-71
2021/11/12 10:26:42;;;;;;;30.53;22.73;;;;;;;;;;4986149;28;20177;-71
2021/11/12 10:29:11;;;;;;;31.83;23.20;;;;;;;;;;4991619;28;20216;-71
2021/11/12 10:31:42;;;;;;;29.67;21.90;;;;;;;;;;4987586;28;20472;-70
2021/11/12 10:34:12;;;;;;;31.87;21.37;;;;;;;;;;4986867;28;20424;-71
2021/11/12 10:36:56;;;;;;;29.40;20.33;;;;;;;;;;4987004;28;20455;-72
2021/11/12 10:39:32;;;;;;;27.53;18.60;;;;;;;;;;5005230;28;20961;-74
2021/11/12 10:42:00;;;;;;;26.93;16.77;;;;;;;;;;4987682;28;20436;-73
2021/11/12 10:44:25;;;;;;;19.00;14.77;;;;;;;;;;4980412;28;20429;-72
2021/11/12 10:46:50;;;;;;;19.57;13.70;;;;;;;;;;4987104;28;20431;-72
2021/11/12 10:49:27;;;;;;;16.27;12.10;;;;;;;;;;4992759;28;20185;-71
2021/11/12 10:51:54;;;;;;;26.30;15.47;;;;;;;;;;4992349;28;20622;-71
2021/11/12 10:54:34;;;;;;;24.00;15.73;;;;;;;;;;4989852;28;20444;-72
2021/11/12 10:56:59;;;;;;;18.30;13.67;;;;;;;;;;4990518;28;20460;-71
2021/11/12 10:59:24;;;;;;;17.53;12.63;;;;;;;;;;4990325;28;20845;-72
2021/11/12 11:01:49;;;;;;;15.40;11.93;;;;;;;;;;4984001;28;20182;-74
2021/11/12 11:04:16;;;;;;;13.60;10.43;;;;;;;;;;4991769;28;20177;-73
2021/11/12 11:06:42;;;;;;;19.67;11.50;;;;;;;;;;4982411;28;20198;-70
2021/11/12 11:09:07;;;;;;;18.97;11.50;;;;;;;;;;4987438;28;20506;-71
2021/11/12 11:11:39;;;;;;;19.67;13.40;;;;;;;;;;4986056;28;20269;-70
2021/11/12 11:14:05;;;;;;;19.60;12.63;;;;;;;;;;4989426;28;20196;-72
2021/11/12 11:16:35;;;;;;;19.43;13.23;;;;;;;;;;4995929;28;20758;-71
2021/11/12 11:19:01;;;;;;;19.03;12.30;;;;;;;;;;4993452;28;21051;-71
2021/11/12 11:21:27;;;;;;;18.90;12.57;;;;;;;;;;4994901;28;20463;-71
2021/11/12 11:24:04;;;;;;;16.93;12.50;;;;;;;;;;4997522;28;20610;-72
2021/11/12 11:26:48;;;;;;;17.67;13.03;;;;;;;;;;4994300;28;20432;-71
2021/11/12 11:29:15;;;;;;;23.00;14.27;;;;;;;;;;4998259;28;20459;-71
2021/11/12 11:31:40;;;;;;;20.30;15.00;;;;;;;;;;4994782;28;20437;-71
2021/11/12 11:34:06;;;;;;;18.87;13.50;;;;;;;;;;4996839;28;20439;-71
2021/11/12 11:36:33;;;;;;;18.07;13.67;;;;;;;;;;4996253;28;20567;-71
2021/11/12 11:39:00;;;;;;;19.00;14.73;;;;;;;;;;4997110;28;20213;-71
2021/11/12 11:41:26;;;;;;;21.20;14.60;;;;;;;;;;4995797;28;20452;-71
2021/11/12 11:43:51;;;;;;;14.00;11.13;;;;;;;;;;4995821;28;20435;-71
2021/11/12 11:46:22;;;;;;;15.63;11.73;;;;;;;;;;5000048;28;20173;-72
2021/11/12 11:48:47;;;;;;;16.03;11.17;;;;;;;;;;4995884;28;20197;-71
2021/11/12 11:51:23;;;;;;;19.63;12.20;;;;;;;;;;4993351;28;20953;-71
2021/11/12 11:53:49;;;;;;;16.73;11.67;;;;;;;;;;4991269;28;20818;-71
2021/11/12 11:56:14;;;;;;;15.87;11.93;;;;;;;;;;5002571;28;20435;-71
2021/11/12 11:58:42;;;;;;;14.30;12.07;;;;;;;;;;4994823;28;20511;-71
2021/11/12 12:01:20;;;;;;;13.80;11.30;;;;;;;;;;4996289;28;20185;-71
2021/11/12 12:04:03;;;;;;;17.20;11.63;;;;;;;;;;4996446;28;20457;-71
2021/11/12 12:06:28;;;;;;;17.60;13.43;;;;;;;;;;4981893;28;20452;-72
2021/11/12 12:09:02;;;;;;;16.77;12.27;;;;;;;;;;4988069;28;20472;-71
2021/11/12 12:11:27;;;;;;;19.47;12.70;;;;;;;;;;4992910;28;20247;-72
2021/11/12 12:14:11;;;;;;;17.43;12.30;;;;;;;;;;4989309;28;20544;-73
2021/11/12 12:16:38;;;;;;;16.10;11.80;;;;;;;;;;4993939;28;20192;-73
2021/11/12 12:19:03;;;;;;;14.23;11.70;;;;;;;;;;4990983;28;21276;-72
2021/11/12 12:21:39;;;;;;;15.90;12.20;;;;;;;;;;4989888;28;20436;-72
2021/11/12 12:35:42;;;;;;;16.43;12.33;;;;;;;;;;4986755;28;20447;-72
2021/11/12 12:38:45;;;;;;;17.80;13.27;;;;;;;;;;4990680;28;20517;-73
2021/11/12 13:25:32;;;;;;;22.73;16.23;;;;;;;;;;4984129;28;21183;-72
2021/11/12 13:28:04;;;;;;;20.77;15.93;;;;;;;;;;4987388;28;20457;-72
2021/11/12 13:30:29;;;;;;;20.67;17.10;;;;;;;;;;4986146;28;20578;-72
2021/11/12 13:32:54;;;;;;;17.70;14.83;;;;;;;;;;4987719;28;20440;-72
2021/11/12 13:35:33;;;;;;;19.23;15.77;;;;;;;;;;4985967;28;20185;-72
2021/11/12 13:37:58;;;;;;;17.90;14.80;;;;;;;;;;4987850;28;20690;-72
2021/11/12 13:40:23;;;;;;;20.33;16.97;;;;;;;;;;4982073;28;20456;-72
2021/11/12 13:42:49;;;;;;;19.53;16.67;;;;;;;;;;4986676;28;20196;-72
2021/11/12 13:45:16;;;;;;;17.37;15.40;;;;;;;;;;4986342;28;20185;-72
2021/11/12 13:47:42;;;;;;;19.47;16.57;;;;;;;;;;4987264;28;20209;-72
2021/11/12 13:50:07;;;;;;;20.77;16.50;;;;;;;;;;4999704;28;20448;-72
2021/11/12 13:52:34;;;;;;;19.57;16.40;;;;;;;;;;4988219;28;20715;-73
2021/11/12 13:55:02;;;;;;;18.03;16.13;;;;;;;;;;4988886;28;20243;-72
2021/11/12 13:57:27;;;;;;;19.53;15.23;;;;;;;;;;4983760;28;20538;-72
2021/11/12 14:00:02;;;;;;;19.80;15.80;;;;;;;;;;4988486;28;21086;-72
2021/11/12 14:02:28;;;;;;;18.90;16.20;;;;;;;;;;4987735;28;21066;-72
2021/11/12 14:05:06;;;;;;;17.67;15.70;;;;;;;;;;4991914;28;20475;-72
2021/11/12 14:07:31;;;;;;;17.80;15.70;;;;;;;;;;4987995;28;21059;-71
2021/11/12 14:10:00;;;;;;;21.23;17.00;;;;;;;;;;4990169;28;20455;-72
2021/11/12 14:12:26;;;;;;;17.50;15.70;;;;;;;;;;4990754;28;20192;-72
2021/11/12 14:15:04;;;;;;;16.60;14.70;;;;;;;;;;4989689;28;20440;-72
2021/11/12 14:17:31;;;;;;;17.77;14.10;;;;;;;;;;4987116;28;20196;-72
2021/11/12 14:22:57;;;;;;;18.77;16.83;;;;;;;;;;4987513;28;20439;-72
2021/11/12 14:28:01;;;;;;;16.43;14.70;;;;;;;;;;4990134;28;20522;-72
2021/11/12 14:30:51;;;;;;;18.40;15.73;;;;;;;;;;4989721;28;20195;-72
2021/11/12 14:49:17;;;;;;;23.50;19.17;;;;;;;;;;4990164;28;20493;-71
2021/11/12 14:52:03;;;;;;;25.37;20.40;;;;;;;;;;4988025;28;20450;-72
2021/11/12 14:54:49;;;;;;;21.63;19.33;;;;;;;;;;4991846;28;20443;-71
2021/11/12 14:59:51;;;;;;;26.93;21.53;;;;;;;;;;4988238;28;20437;-72
2021/11/12 15:02:17;;;;;;;21.93;19.50;;;;;;;;;;4988087;28;20943;-72
2021/11/12 15:04:43;;;;;;;22.90;19.97;;;;;;;;;;4986882;28;20446;-72
2021/11/12 15:07:09;;;;;;;21.77;19.57;;;;;;;;;;4996740;28;20217;-72
2021/11/12 15:09:36;;;;;;;22.27;19.60;;;;;;;;;;4988465;28;20463;-72
2021/11/12 15:12:05;;;;;;;21.47;19.20;;;;;;;;;;4990511;28;20196;-72
2021/11/12 15:14:35;;;;;;;24.57;21.30;;;;;;;;;;4990064;28;20432;-72
2021/11/12 15:17:02;;;;;;;22.77;19.63;;;;;;;;;;4991441;28;20942;-72
2021/11/12 15:19:29;;;;;;;22.90;20.43;;;;;;;;;;4987792;28;20429;-72
2021/11/12 15:30:06;;;;;;;21.27;18.97;;;;;;;;;;4992306;28;21043;-72
2021/11/12 15:32:37;;;;;;;22.57;20.17;;;;;;;;;;4992803;28;20436;-72
2021/11/12 15:35:08;;;;;;;22.17;19.80;;;;;;;;;;4992149;28;20448;-72
2021/11/12 15:40:16;;;;;;;21.87;19.63;;;;;;;;;;4987694;28;20494;-72
2021/11/12 15:48:11;;;;;;;22.37;19.97;;;;;;;;;;4990659;28;20511;-72
2021/11/12 15:53:22;;;;;;;24.47;19.70;;;;;;;;;;4989922;28;20432;-74
2021/11/12 15:55:58;;;;;;;21.60;19.13;;;;;;;;;;4995271;28;20441;-73
2021/11/12 16:06:56;;;;;;;24.97;21.50;;;;;;;;;;4963432;28;20460;-71
2021/11/12 16:09:42;;;;;;;21.63;19.33;;;;;;;;;;4994322;28;20424;-72
2021/11/12 16:23:47;;;;;;;22.13;19.77;;;;;;;;;;4991387;28;20430;-71
2021/11/12 16:25:46;;;;;;;25.47;20.97;;;;;;;;;;4988228;28;20441;-72
2021/11/12 16:28:21;;;;;;;23.50;20.77;;;;;;;;;;4991377;28;20498;-71
2021/11/12 16:30:56;;;;;;;22.40;20.00;;;;;;;;;;4990307;28;20197;-72
2021/11/12 16:33:21;;;;;;;22.70;20.30;;;;;;;;;;4993933;28;20458;-72
2021/11/12 16:35:47;;;;;;;23.63;20.33;;;;;;;;;;4990483;28;20527;-71
2021/11/12 16:38:22;;;;;;;25.63;20.03;;;;;;;;;;4990500;28;20776;-71
2021/11/12 16:40:53;;;;;;;25.17;20.07;;;;;;;;;;4991926;28;20268;-71
2021/11/12 16:48:16;;;;;;;25.27;21.73;;;;;;;;;;4989337;28;20255;-71
2021/11/12 16:53:43;;;;;;;32.13;25.30;;;;;;;;;;4953933;28;20458;-71
2021/11/12 17:04:38;;;;;;;37.80;26.57;;;;;;;;;;4989262;28;20517;-71
2021/11/12 17:07:28;;;;;;;44.47;28.77;;;;;;;;;;4982503;28;20435;-72
2021/11/12 17:10:14;;;;;;;38.57;26.90;;;;;;;;;;4984621;28;21025;-72
2021/11/12 17:13:03;;;;;;;38.33;27.00;;;;;;;;;;4992324;28;20420;-72
2021/11/12 17:20:52;;;;;;;35.50;26.83;;;;;;;;;;4988090;28;20188;-71
2021/11/12 17:47:54;;;;;;;39.10;28.17;;;;;;;;;;4988928;28;20449;-73
2021/11/12 18:04:01;;;;;;;40.70;27.27;;;;;;;;;;4989491;28;20455;-72
2021/11/12 18:12:22;;;;;;;36.83;26.73;;;;;;;;;;4986308;28;20631;-72
2021/11/12 18:15:04;;;;;;;35.00;26.63;;;;;;;;;;4987303;28;20564;-71
2021/11/12 21:45:19;;;;;;;24.80;19.43;;;;;;;;;;4984197;28;20914;-72
2021/11/12 21:47:45;;;;;;;22.80;18.80;;;;;;;;;;4978447;28;20980;-72
2021/11/12 21:50:10;;;;;;;24.50;19.60;;;;;;;;;;4982730;28;20468;-72
2021/11/12 21:52:35;;;;;;;26.07;18.50;;;;;;;;;;4979657;28;20256;-72
2021/11/12 21:55:00;;;;;;;24.40;19.67;;;;;;;;;;4988019;28;20735;-72
2021/11/12 21:57:25;;;;;;;26.50;19.43;;;;;;;;;;4984177;28;20201;-72
2021/11/12 21:59:51;;;;;;;23.87;19.33;;;;;;;;;;4981422;28;20269;-72
2021/11/12 22:02:18;;;;;;;26.53;17.83;;;;;;;;;;4986241;28;20181;-72
2021/11/12 22:04:44;;;;;;;25.40;18.17;;;;;;;;;;4989275;28;20231;-72
2021/11/12 22:07:09;;;;;;;25.27;18.90;;;;;;;;;;4990013;28;20463;-72
2021/11/12 22:09:34;;;;;;;25.27;19.57;;;;;;;;;;4982783;28;20182;-72
2021/11/12 22:12:00;;;;;;;24.03;17.67;;;;;;;;;;4986532;28;20181;-72
2021/11/12 22:14:25;;;;;;;22.93;18.17;;;;;;;;;;4981226;28;20193;-72
2021/11/12 22:16:51;;;;;;;23.07;17.43;;;;;;;;;;4995773;28;20443;-72
2021/11/12 22:19:16;;;;;;;25.17;18.13;;;;;;;;;;4987567;28;20289;-72
2021/11/12 22:21:41;;;;;;;27.33;19.63;;;;;;;;;;4981193;28;20202;-72
2021/11/12 22:24:07;;;;;;;24.30;17.90;;;;;;;;;;4981338;28;20181;-72
2021/11/12 22:26:32;;;;;;;21.67;17.33;;;;;;;;;;4983415;28;20678;-71
2021/11/12 22:28:57;;;;;;;24.30;17.47;;;;;;;;;;4983925;28;20228;-73
2021/11/12 22:31:23;;;;;;;22.40;18.27;;;;;;;;;;4987721;28;20193;-72
2021/11/12 22:33:48;;;;;;;23.23;16.97;;;;;;;;;;4986013;28;20208;-72
2021/11/12 22:36:13;;;;;;;31.37;17.60;;;;;;;;;;4989810;28;20243;-72
2021/11/12 22:38:39;;;;;;;24.83;17.40;;;;;;;;;;4985717;28;20236;-72
2021/11/12 22:41:04;;;;;;;21.50;18.43;;;;;;;;;;4983833;28;20178;-72
2021/11/12 22:43:30;;;;;;;24.30;17.70;;;;;;;;;;4981132;28;20222;-72
2021/11/12 22:45:55;;;;;;;24.80;18.63;;;;;;;;;;4981304;28;20200;-72
2021/11/12 22:48:21;;;;;;;20.90;16.80;;;;;;;;;;4982574;28;21227;-72
2021/11/12 22:50:46;;;;;;;24.80;16.20;;;;;;;;;;4982998;28;20233;-72
2021/11/12 22:53:12;;;;;;;22.10;17.83;;;;;;;;;;4984634;28;20209;-72
2021/11/12 22:55:37;;;;;;;22.50;17.33;;;;;;;;;;4984345;28;20229;-71
2021/11/12 22:58:03;;;;;;;21.97;15.60;;;;;;;;;;4980265;28;20189;-72
2021/11/12 23:00:31;;;;;;;22.60;16.40;;;;;;;;;;4985353;28;20189;-72
2021/11/12 23:02:56;;;;;;;23.80;16.37;;;;;;;;;;4991267;28;20746;-72
2021/11/12 23:05:21;;;;;;;23.03;16.00;;;;;;;;;;4990374;28;20551;-72
2021/11/12 23:07:46;;;;;;;21.90;16.70;;;;;;;;;;4986984;28;20208;-72
2021/11/12 23:10:12;;;;;;;20.77;15.30;;;;;;;;;;4984826;28;20214;-72
2021/11/12 23:12:37;;;;;;;24.63;15.73;;;;;;;;;;4986244;28;20220;-72
2021/11/12 23:15:03;;;;;;;19.63;15.30;;;;;;;;;;4986933;28;20178;-72
2021/11/12 23:17:29;;;;;;;20.10;15.83;;;;;;;;;;4988273;28;20248;-72
2021/11/12 23:19:54;;;;;;;25.43;17.73;;;;;;;;;;4983436;28;20243;-71
2021/11/12 23:22:19;;;;;;;24.87;17.53;;;;;;;;;;4985812;28;20655;-72
2021/11/12 23:24:44;;;;;;;17.50;15.13;;;;;;;;;;4986537;28;20342;-72
2021/11/12 23:27:10;;;;;;;22.50;15.90;;;;;;;;;;4985464;28;20233;-72
2021/11/12 23:29:35;;;;;;;20.23;15.60;;;;;;;;;;4985810;28;20188;-72
2021/11/12 23:32:00;;;;;;;19.30;15.07;;;;;;;;;;4987244;28;20208;-72
2021/11/12 23:34:25;;;;;;;20.73;16.17;;;;;;;;;;4991913;28;20185;-72
2021/11/12 23:36:51;;;;;;;25.60;16.27;;;;;;;;;;4996714;28;20856;-72
2021/11/12 23:39:16;;;;;;;24.43;14.83;;;;;;;;;;4988999;28;20203;-72
2021/11/12 23:41:41;;;;;;;22.47;16.40;;;;;;;;;;4986217;28;20324;-72
2021/11/12 23:44:07;;;;;;;20.43;15.00;;;;;;;;;;4985032;28;20332;-72
2021/11/12 23:46:32;;;;;;;19.83;16.00;;;;;;;;;;4987881;28;20208;-72
2021/11/12 23:48:57;;;;;;;19.90;14.80;;;;;;;;;;4984707;28;20209;-72
2021/11/12 23:51:24;;;;;;;26.80;17.50;;;;;;;;;;4988287;28;20193;-71
2021/11/12 23:53:49;;;;;;;21.47;17.20;;;;;;;;;;4987287;28;20269;-72
2021/11/12 23:56:14;;;;;;;22.00;16.30;;;;;;;;;;4981541;28;20816;-72
2021/11/12 23:58:40;;;;;;;22.73;15.73;;;;;;;;;;4986374;28;20636;-72
